FVOT weather

Kotwa Airport
Mashonaland East Province, Zimbabwe

Public forecast

Using degrees Celsius for public forecast. Weather courtesy of forecast.io.

METAR (pilot weather report)

Closest report is Chingozi Airport, 76.8 nm (142.2 km) NE. Retrieved 2019/05/19 22:00 UTC (27 minutes ago):

FQTT 192200Z 00000KT CAVOK 18/15 Q1019

TAF (pilot weather forecast)

Forecast is more than 6 hours old.

Closest forecast is Chingozi Airport, 76.8 nm (142.2 km) NE. Retrieved 2019/05/19 12:09 UTC (10 hours ago):

TAF FQTT 191000Z 1912/2012 16010KT 9999 FEW025 TX31/1913Z TN16/2003Z BECMG 1918/1920 23008KT BECMG 2006/2008 16008KT